Time;durP1;ratioP1;P1;durP2;ratioP2;P2;SDS_P1;SDS_P2;PMS_P1;PMS_P2;Temp;Humidity;BMP_temperature;BMP_pressure;BME280_temperature;BME280_humidity;BME280_pressure;Samples;Min_cycle;Max_cycle;Signal;HPM_P1;HPM_P2
2024/03/20 00:00:14;;;;;;;;;;;7.30;99.90;;;6.10;100.00;98187.72;4979404;28;2322;-70
2024/03/20 00:02:40;;;;;;;;;;;7.20;99.90;;;6.01;100.00;98192.09;4996535;28;1605;-69
2024/03/20 00:05:06;;;;;;;;;;;7.20;99.90;;;5.94;100.00;98195.66;4980637;28;1849;-70
2024/03/20 00:07:32;;;;;;;;;;;7.10;99.90;;;5.90;100.00;98187.94;4979048;28;1572;-69
2024/03/20 00:09:58;;;;;;;;;;;7.10;99.90;;;5.88;100.00;98190.53;4982143;28;3120;-69
2024/03/20 00:12:24;;;;;;;;;;;7.10;99.90;;;5.99;100.00;98191.28;4981325;28;1700;-69
2024/03/20 00:14:50;;;;;;;;;;;7.10;99.90;;;6.02;100.00;98187.81;4996349;28;1584;-69
2024/03/20 00:17:16;;;;;;;;;;;7.10;99.90;;;6.13;100.00;98178.19;4968181;28;1770;-69
2024/03/20 00:19:42;;;;;;;;;;;7.20;99.90;;;6.06;100.00;98185.16;4994850;28;1838;-69
2024/03/20 00:22:08;;;;;;;;;;;7.10;99.90;;;6.02;100.00;98173.22;4996910;28;1979;-69
2024/03/20 00:24:34;;;;;;;;;;;7.10;99.90;;;5.95;100.00;98175.88;4994220;28;2009;-69
2024/03/20 00:27:00;;;;;;;;;;;7.10;99.90;;;5.87;100.00;98176.81;4981110;28;1777;-69
2024/03/20 00:29:27;;;;;;;;;;;7.10;99.90;;;5.87;100.00;98170.81;4993209;28;1614;-69
2024/03/20 00:31:54;;;;;;;;;;;7.10;99.90;;;5.82;100.00;98170.88;4979571;28;1429;-69
2024/03/20 00:34:21;;;;;;;;;;;7.00;99.90;;;5.72;100.00;98164.13;4983678;28;1597;-70
2024/03/20 00:36:48;;;;;;;;;;;7.00;99.90;;;5.78;100.00;98170.94;4980181;28;1761;-69
2024/03/20 00:39:14;;;;;;;;;;;6.90;99.90;;;5.82;100.00;98176.03;4995788;28;1662;-69
2024/03/20 00:41:40;;;;;;;;;;;6.90;99.90;;;5.67;100.00;98171.09;4992460;28;1927;-69
2024/03/20 00:44:05;;;;;;;;;;;6.80;99.90;;;5.79;100.00;98168.38;4996668;28;1452;-69
2024/03/20 00:46:31;;;;;;;;;;;6.80;99.90;;;5.63;100.00;98170.28;4994630;28;1615;-69
2024/03/20 00:48:57;;;;;;;;;;;6.80;99.90;;;5.68;100.00;98167.66;5001030;28;1568;-69
2024/03/20 00:51:23;;;;;;;;;;;6.80;99.90;;;5.37;100.00;98165.47;4992453;28;3373;-69
2024/03/20 00:53:49;;;;;;;;;;;6.80;99.90;;;5.36;100.00;98168.03;4981124;28;2338;-69
2024/03/20 00:56:14;;;;;;;;;;;6.70;99.90;;;5.33;100.00;98175.81;4997212;28;1562;-69
2024/03/20 00:58:40;;;;;;;;;;;6.60;99.90;;;5.55;100.00;98173.84;4965263;28;2318;-70
2024/03/20 01:01:06;;;;;;;;;;;6.60;99.90;;;5.54;100.00;98172.13;4969766;28;2005;-69
2024/03/20 01:03:32;;;;;;;;;;;6.60;99.90;;;5.43;100.00;98180.00;4984080;28;1642;-70
2024/03/20 01:05:58;;;;;;;;;;;6.60;99.90;;;5.31;100.00;98174.97;4998430;28;1584;-69
2024/03/20 01:08:24;;;;;;;;;;;6.60;99.90;;;5.33;100.00;98175.81;4980162;28;2013;-69
2024/03/20 01:10:50;;;;;;;;;;;6.50;99.90;;;5.30;100.00;98170.72;4982067;28;1579;-69
2024/03/20 01:13:18;;;;;;;;;;;6.50;99.90;;;5.31;100.00;98170.66;4979011;28;1651;-69
2024/03/20 01:15:44;;;;;;;;;;;6.50;99.90;;;5.27;100.00;98169.03;4996100;28;1424;-69
2024/03/20 01:18:11;;;;;;;;;;;6.50;99.90;;;5.12;100.00;98177.75;4977509;28;1565;-70
2024/03/20 01:20:37;;;;;;;;;;;6.40;99.90;;;5.07;100.00;98171.81;4993396;28;1903;-69
2024/03/20 01:23:03;;;;;;;;;;;6.40;99.90;;;5.03;100.00;98177.88;4982322;28;2048;-68
2024/03/20 01:25:28;;;;;;;;;;;6.40;99.90;;;5.07;100.00;98171.81;4992173;28;1448;-68
2024/03/20 01:27:54;;;;;;;;;;;6.30;99.90;;;4.96;100.00;98179.66;4999404;28;1659;-68
2024/03/20 01:30:20;;;;;;;;;;;6.30;99.90;;;4.90;100.00;98176.28;4980341;28;1874;-69
2024/03/20 01:32:46;;;;;;;;;;;6.20;99.90;;;4.85;100.00;98173.75;4964430;28;1467;-70
2024/03/20 01:35:13;;;;;;;;;;;6.20;99.90;;;4.92;100.00;98179.69;4980246;28;1858;-70
2024/03/20 01:37:39;;;;;;;;;;;6.20;99.90;;;4.85;100.00;98178.91;4980521;28;3399;-70
2024/03/20 01:40:06;;;;;;;;;;;6.20;99.90;;;4.95;100.00;98180.53;4978764;28;1655;-70
2024/03/20 01:42:32;;;;;;;;;;;6.20;99.90;;;4.97;100.00;98183.06;4992457;28;1761;-70
2024/03/20 01:45:17;;;;;;;;;;;6.20;99.90;;;5.12;100.00;98185.47;4995142;28;1351;-70
2024/03/20 01:47:44;;;;;;;;;;;6.20;99.90;;;5.12;100.00;98179.50;4996889;28;1569;-69
2024/03/20 01:50:11;;;;;;;;;;;6.20;99.90;;;4.94;100.00;98170.25;4981008;28;2095;-69
2024/03/20 01:52:51;;;;;;;;;;;6.20;99.90;;;4.86;100.00;98169.47;4979879;28;1614;-69
2024/03/20 01:55:19;;;;;;;;;;;6.10;99.90;;;4.73;100.00;98172.16;4963212;28;1858;-69
2024/03/20 01:57:45;;;;;;;;;;;6.10;99.90;;;4.67;100.00;98173.94;4999255;28;1561;-69
2024/03/20 02:00:21;;;;;;;;;;;6.00;99.90;;;4.78;100.00;98182.41;4996679;28;1989;-69
2024/03/20 02:02:49;;;;;;;;;;;6.00;99.90;;;4.69;100.00;98178.19;4994682;28;1600;-69
2024/03/20 02:05:15;;;;;;;;;;;5.90;99.90;;;4.72;100.00;98180.78;4982124;28;1979;-69
2024/03/20 02:07:41;;;;;;;;;;;5.90;99.90;;;4.71;100.00;98179.03;4996053;28;1616;-69
2024/03/20 02:10:07;;;;;;;;;;;5.90;99.90;;;4.77;100.00;98175.56;4981661;28;1654;-69
2024/03/20 02:12:33;;;;;;;;;;;5.90;99.90;;;4.77;100.00;98167.88;4978140;28;1629;-69
2024/03/20 02:15:06;;;;;;;;;;;5.90;99.90;;;4.78;100.00;98169.56;4946466;28;1808;-70
2024/03/20 02:17:32;;;;;;;;;;;5.90;99.90;;;4.86;100.00;98162.63;4976852;28;3087;-69
2024/03/20 02:19:57;;;;;;;;;;;6.00;99.90;;;4.89;100.00;98167.72;4981443;28;1444;-69
2024/03/20 02:22:23;;;;;;;;;;;6.00;99.90;;;4.95;100.00;98161.66;4993805;28;2262;-69
2024/03/20 02:24:50;;;;;;;;;;;6.10;99.90;;;4.98;100.00;98169.34;4997291;28;1550;-69
2024/03/20 02:27:16;;;;;;;;;;;6.00;99.90;;;4.86;100.00;98166.88;4983429;28;2970;-69
2024/03/20 02:29:42;;;;;;;;;;;6.00;99.90;;;4.95;100.00;98159.94;4982148;28;2562;-69
2024/03/20 02:32:08;;;;;;;;;;;6.00;99.90;;;5.02;100.00;98159.00;5000816;28;2042;-69
2024/03/20 02:34:33;;;;;;;;;;;6.00;99.90;;;4.99;100.00;98153.88;4984770;28;1566;-69
2024/03/20 02:36:59;;;;;;;;;;;6.10;99.90;;;5.06;100.00;98157.25;4996818;28;1776;-69
2024/03/20 02:39:25;;;;;;;;;;;6.10;99.90;;;5.00;100.00;98157.31;4995779;28;1633;-69
2024/03/20 02:41:52;;;;;;;;;;;6.10;99.90;;;4.99;100.00;98148.72;4999108;28;1987;-69
2024/03/20 02:44:18;;;;;;;;;;;6.10;99.90;;;5.05;100.00;98147.81;4999259;28;1403;-69
2024/03/20 02:46:44;;;;;;;;;;;6.10;99.90;;;5.07;100.00;98140.94;4996799;28;2089;-69
2024/03/20 02:49:10;;;;;;;;;;;6.20;99.90;;;4.93;100.00;98137.69;4984382;28;2275;-70
2024/03/20 02:51:36;;;;;;;;;;;6.10;99.90;;;5.00;100.00;98139.31;4966691;28;1551;-69
2024/03/20 02:54:02;;;;;;;;;;;6.10;99.90;;;4.86;100.00;98143.75;4999241;28;1398;-69
2024/03/20 02:56:28;;;;;;;;;;;6.10;99.90;;;4.81;100.00;98138.66;4996291;28;1606;-70
2024/03/20 02:58:54;;;;;;;;;;;6.00;99.90;;;4.85;100.00;98140.31;4982235;28;1636;-69
2024/03/20 03:01:19;;;;;;;;;;;6.00;99.90;;;5.03;100.00;98136.69;4995229;28;2017;-69
2024/03/20 03:03:46;;;;;;;;;;;6.00;99.90;;;4.88;100.00;98140.31;4980760;28;1501;-69
2024/03/20 03:06:15;;;;;;;;;;;6.00;99.90;;;4.72;100.00;98136.16;4997311;28;1646;-69
2024/03/20 03:08:42;;;;;;;;;;;6.00;99.90;;;4.70;100.00;98137.91;4997218;28;3116;-69
2024/03/20 03:11:08;;;;;;;;;;;5.90;99.90;;;4.68;100.00;98137.94;4996147;28;1800;-69
2024/03/20 03:13:34;;;;;;;;;;;5.90;99.90;;;4.74;100.00;98135.28;4980998;28;1599;-69
2024/03/20 03:16:03;;;;;;;;;;;5.90;99.90;;;4.74;100.00;98137.84;4981332;28;1614;-69
2024/03/20 03:18:30;;;;;;;;;;;5.80;99.90;;;4.69;100.00;98128.50;4977535;28;1645;-69
2024/03/20 03:20:56;;;;;;;;;;;5.80;99.90;;;4.71;100.00;98122.47;5003098;28;2135;-69
2024/03/20 03:23:22;;;;;;;;;;;5.80;99.90;;;4.67;100.00;98123.38;4982014;28;1695;-69
2024/03/20 03:25:47;;;;;;;;;;;5.80;99.90;;;4.69;100.00;98113.91;4983621;28;1631;-69
2024/03/20 03:28:13;;;;;;;;;;;5.80;99.90;;;4.61;100.00;98116.56;4982725;28;1635;-69
2024/03/20 03:30:39;;;;;;;;;;;5.80;99.90;;;4.63;100.00;98118.25;4985488;28;1647;-69
2024/03/20 03:33:05;;;;;;;;;;;5.80;99.90;;;4.72;100.00;98113.91;4983707;28;1484;-69
2024/03/20 03:35:32;;;;;;;;;;;5.80;99.90;;;4.78;100.00;98112.97;4964621;28;1966;-69
2024/03/20 03:37:58;;;;;;;;;;;5.80;99.90;;;4.73;100.00;98115.59;4983739;28;1886;-69
2024/03/20 03:40:24;;;;;;;;;;;5.80;99.90;;;4.70;100.00;98112.19;4998223;28;1910;-69
2024/03/20 03:42:50;;;;;;;;;;;5.80;99.90;;;4.76;100.00;98110.41;4998422;28;1594;-69
2024/03/20 03:45:16;;;;;;;;;;;5.80;99.90;;;4.73;100.00;98120.75;5000144;28;1657;-70
2024/03/20 03:47:42;;;;;;;;;;;5.80;99.90;;;4.63;100.00;98116.56;4986032;28;1544;-69
2024/03/20 03:50:08;;;;;;;;;;;5.80;99.90;;;4.69;100.00;98115.63;4967859;28;3033;-69
2024/03/20 03:52:34;;;;;;;;;;;5.70;99.90;;;4.82;100.00;98117.22;4965362;28;1588;-69
2024/03/20 03:55:00;;;;;;;;;;;5.80;99.90;;;4.78;100.00;98118.97;4995729;28;1817;-69
2024/03/20 03:57:26;;;;;;;;;;;5.80;99.90;;;4.76;100.00;98115.56;4997291;28;1436;-69
2024/03/20 03:59:52;;;;;;;;;;;5.80;99.90;;;4.57;100.00;98106.34;4979875;28;1851;-69
2024/03/20 04:02:17;;;;;;;;;;;5.80;99.90;;;4.55;100.00;98103.78;4981468;28;1906;-70
2024/03/20 04:04:43;;;;;;;;;;;5.80;99.90;;;4.71;100.00;98108.78;4984440;28;1626;-69
2024/03/20 04:07:09;;;;;;;;;;;5.70;99.90;;;4.66;100.00;98111.38;4998878;28;1682;-69
2024/03/20 04:09:35;;;;;;;;;;;5.80;99.90;;;4.69;100.00;98106.19;4998835;28;1425;-69
2024/03/20 04:12:01;;;;;;;;;;;5.80;99.90;;;4.39;100.00;98120.22;4992857;28;1622;-69
2024/03/20 04:14:28;;;;;;;;;;;5.80;99.90;;;4.49;100.00;98114.09;4998410;28;1721;-69
2024/03/20 04:16:53;;;;;;;;;;;5.80;99.90;;;4.48;100.00;98117.56;4981560;28;1846;-69
2024/03/20 04:19:19;;;;;;;;;;;5.70;99.90;;;4.50;100.00;98118.41;4978665;28;2063;-69
2024/03/20 04:21:45;;;;;;;;;;;5.60;99.90;;;4.38;100.00;98118.53;4996701;28;1902;-70
2024/03/20 04:24:11;;;;;;;;;;;5.60;99.90;;;4.32;100.00;98118.56;4976902;28;1768;-69
2024/03/20 04:26:37;;;;;;;;;;;5.50;99.90;;;4.31;100.00;98122.88;4980923;28;1514;-69
2024/03/20 04:29:03;;;;;;;;;;;5.50;99.90;;;4.27;100.00;98126.31;4995755;28;1575;-70
2024/03/20 04:31:29;;;;;;;;;;;5.50;99.90;;;4.28;100.00;98128.00;4998216;28;1638;-69
2024/03/20 04:33:55;;;;;;;;;;;5.50;99.90;;;4.27;100.00;98134.03;4980433;28;1661;-69
2024/03/20 04:36:21;;;;;;;;;;;5.50;99.90;;;4.30;100.00;98134.00;4997404;28;1390;-70
2024/03/20 04:38:46;;;;;;;;;;;5.50;99.90;;;4.17;100.00;98128.13;4964968;28;1675;-69
2024/03/20 04:41:13;;;;;;;;;;;5.50;99.90;;;4.13;100.00;98128.16;4986100;28;1977;-69
2024/03/20 04:43:38;;;;;;;;;;;5.40;99.90;;;4.21;100.00;98133.22;4994978;28;1637;-69
2024/03/20 04:46:04;;;;;;;;;;;5.40;99.90;;;4.06;100.00;98132.50;4997055;28;3205;-69
2024/03/20 04:48:30;;;;;;;;;;;5.30;99.90;;;4.03;100.00;98131.66;4996552;28;2135;-69
2024/03/20 04:50:56;;;;;;;;;;;5.30;99.90;;;4.03;100.00;98137.63;4979657;28;1543;-70
2024/03/20 04:53:23;;;;;;;;;;;5.30;99.90;;;4.04;100.00;98141.94;4980781;28;2430;-69
2024/03/20 04:55:49;;;;;;;;;;;5.20;99.90;;;4.06;100.00;98144.47;4979603;28;1762;-69
2024/03/20 04:58:16;;;;;;;;;;;5.20;99.90;;;4.11;100.00;98142.75;4980536;28;1425;-69
2024/03/20 05:00:42;;;;;;;;;;;5.20;99.90;;;4.20;100.00;98142.66;4994892;28;1979;-69
2024/03/20 05:03:08;;;;;;;;;;;5.30;99.90;;;4.21;100.00;98143.50;4998528;28;1425;-69
2024/03/20 05:05:33;;;;;;;;;;;5.30;99.90;;;4.11;100.00;98137.59;4995710;28;1873;-70
2024/03/20 05:07:59;;;;;;;;;;;5.30;99.90;;;4.05;100.00;98133.34;4979921;28;2043;-69
2024/03/20 05:10:26;;;;;;;;;;;5.20;99.90;;;3.88;100.00;98138.63;4994399;28;1764;-70
2024/03/20 05:12:52;;;;;;;;;;;5.20;99.90;;;3.77;100.00;98135.25;4993728;28;1747;-69
2024/03/20 05:15:18;;;;;;;;;;;5.20;99.90;;;3.80;100.00;98142.09;4981084;28;1846;-69
2024/03/20 05:17:44;;;;;;;;;;;5.20;99.90;;;3.75;100.00;98152.41;4993188;28;1688;-68
2024/03/20 05:20:10;;;;;;;;;;;5.10;99.90;;;3.67;100.00;98149.88;4979143;28;1477;-68
2024/03/20 05:22:36;;;;;;;;;;;5.10;99.90;;;3.51;100.00;98150.81;4978160;28;2214;-68
2024/03/20 05:25:02;;;;;;;;;;;5.00;99.90;;;3.51;100.00;98141.41;4977299;28;1837;-68
2024/03/20 05:27:28;;;;;;;;;;;4.80;99.90;;;3.58;100.00;98152.50;4978302;28;1663;-68
2024/03/20 05:29:54;;;;;;;;;;;4.80;99.90;;;3.64;100.00;98156.72;4979778;28;1365;-68
2024/03/20 05:32:20;;;;;;;;;;;4.80;99.90;;;3.75;100.00;98167.78;4994461;28;1614;-68
2024/03/20 05:34:46;;;;;;;;;;;4.80;99.90;;;3.82;100.00;98172.03;4997462;28;1759;-68
2024/03/20 05:37:12;;;;;;;;;;;4.80;99.90;;;3.80;100.00;98171.19;4979971;28;1816;-68
2024/03/20 05:39:38;;;;;;;;;;;4.90;99.90;;;3.68;100.00;98173.84;4983419;28;1638;-69
2024/03/20 05:42:04;;;;;;;;;;;4.90;99.90;;;3.61;100.00;98177.31;4978210;28;3364;-68
2024/03/20 05:44:30;;;;;;;;;;;4.90;99.90;;;3.56;100.00;98187.59;4975834;28;1289;-68
2024/03/20 05:46:56;;;;;;;;;;;4.90;99.90;;;3.46;100.00;98193.63;4977476;28;1424;-68
2024/03/20 05:49:22;;;;;;;;;;;4.80;99.90;;;3.42;100.00;98194.47;4995928;28;1910;-68
2024/03/20 05:51:48;;;;;;;;;;;4.70;99.90;;;3.54;100.00;98197.00;4980742;28;1266;-70
2024/03/20 05:54:15;;;;;;;;;;;4.80;99.90;;;3.67;100.00;98200.34;4995842;28;1713;-70
2024/03/20 05:56:41;;;;;;;;;;;4.80;99.90;;;3.78;100.00;98201.16;4962426;28;2001;-70
2024/03/20 05:59:07;;;;;;;;;;;4.90;99.90;;;4.08;100.00;98201.81;4997979;28;1451;-70
2024/03/20 06:01:34;;;;;;;;;;;4.90;99.90;;;4.29;100.00;98213.66;4998326;28;1975;-70
2024/03/20 06:04:00;;;;;;;;;;;5.10;99.90;;;4.28;100.00;98210.25;4982375;28;1567;-70
2024/03/20 06:06:28;;;;;;;;;;;5.20;99.90;;;4.29;100.00;98208.53;4985460;28;1446;-70
2024/03/20 06:08:54;;;;;;;;;;;5.30;99.90;;;4.39;100.00;98199.91;5003401;28;1893;-70
2024/03/20 06:11:39;;;;;;;;;;;5.30;99.90;;;4.60;100.00;98196.28;4984375;28;2036;-70
2024/03/20 06:14:05;;;;;;;;;;;5.40;99.90;;;4.67;100.00;98197.94;5000145;28;2309;-69
2024/03/20 06:16:31;;;;;;;;;;;5.50;99.90;;;4.80;100.00;98196.13;4995295;28;1544;-68
2024/03/20 06:18:57;;;;;;;;;;;5.50;99.90;;;4.72;100.00;98197.88;4980620;28;1396;-70
2024/03/20 06:21:23;;;;;;;;;;;5.50;99.90;;;4.77;100.00;98193.59;4997614;28;1934;-68
2024/03/20 06:23:49;;;;;;;;;;;5.60;99.90;;;4.98;100.00;98197.66;4998395;28;3181;-68
2024/03/20 06:26:15;;;;;;;;;;;5.70;99.90;;;5.17;100.00;98180.28;4996089;28;1631;-68
2024/03/20 06:28:41;;;;;;;;;;;5.90;99.90;;;5.33;100.00;98184.38;4997087;28;1425;-68
2024/03/20 06:31:07;;;;;;;;;;;6.00;99.90;;;5.35;100.00;98176.66;4996945;28;1641;-68
2024/03/20 06:33:34;;;;;;;;;;;6.20;99.90;;;5.66;100.00;98180.53;4998110;28;2550;-69
2024/03/20 06:36:00;;;;;;;;;;;6.20;99.90;;;5.72;100.00;98182.16;4999620;28;1901;-70
2024/03/20 06:38:26;;;;;;;;;;;6.10;99.90;;;5.35;100.00;98182.66;4995384;28;2386;-70
2024/03/20 06:40:51;;;;;;;;;;;6.10;99.90;;;5.57;100.00;98183.25;4983935;28;2006;-70
2024/03/20 06:43:17;;;;;;;;;;;6.10;99.90;;;5.71;100.00;98180.47;4997458;28;1289;-70
2024/03/20 06:45:49;;;;;;;;;;;6.30;99.90;;;6.04;100.00;98174.03;4998269;28;1615;-70
2024/03/20 06:48:15;;;;;;;;;;;6.50;99.90;;;6.20;100.00;98178.94;4984810;28;2044;-69
2024/03/20 06:50:45;;;;;;;;;;;6.60;99.90;;;6.47;100.00;98185.38;4985756;28;1838;-69
2024/03/20 06:53:11;;;;;;;;;;;6.80;99.90;;;6.57;100.00;98178.34;4980230;28;2298;-69
2024/03/20 06:55:40;;;;;;;;;;;6.80;99.90;;;6.53;100.00;98177.56;4997732;28;1453;-69
2024/03/20 06:58:06;;;;;;;;;;;6.90;99.90;;;6.75;100.00;98180.63;4979548;28;2430;-69
2024/03/20 07:00:33;;;;;;;;;;;7.10;99.90;;;6.89;100.00;98173.50;4996192;28;2121;-69
2024/03/20 07:03:00;;;;;;;;;;;7.30;99.90;;;7.05;100.00;98170.63;4982428;28;1826;-69
2024/03/20 07:05:26;;;;;;;;;;;7.30;99.90;;;6.89;100.00;98170.91;4978009;28;1770;-70
2024/03/20 07:07:52;;;;;;;;;;;7.50;99.90;;;7.22;100.00;98172.88;4980625;28;1314;-69
2024/03/20 07:10:18;;;;;;;;;;;7.70;99.90;;;7.49;100.00;98172.31;4997674;28;1615;-69
2024/03/20 07:12:44;;;;;;;;;;;7.80;99.90;;;7.69;100.00;98173.66;4997141;28;3515;-70
2024/03/20 07:15:11;;;;;;;;;;;8.00;99.90;;;7.81;100.00;98175.09;4980681;28;1596;-70
2024/03/20 07:17:40;;;;;;;;;;;8.20;99.90;;;8.05;100.00;98178.88;4995399;28;1770;-70
2024/03/20 07:20:09;;;;;;;;;;;8.30;99.90;;;8.32;100.00;98183.38;4998313;28;1607;-70
2024/03/20 07:22:38;;;;;;;;;;;8.60;99.90;;;8.32;100.00;98179.97;4983104;28;1993;-70
2024/03/20 07:25:07;;;;;;;;;;;8.70;99.90;;;8.65;100.00;98182.66;4984181;28;2135;-70
2024/03/20 07:27:34;;;;;;;;;;;8.90;99.90;;;8.74;100.00;98174.66;4981743;28;1285;-69
2024/03/20 07:30:01;;;;;;;;;;;9.10;99.90;;;8.96;100.00;98174.94;4996483;28;1611;-70
2024/03/20 07:32:27;;;;;;;;;;;9.20;99.90;;;8.93;100.00;98169.84;4976201;28;1637;-70
2024/03/20 07:34:53;;;;;;;;;;;9.40;99.90;;;9.28;100.00;98179.22;4999063;28;1471;-70
2024/03/20 07:37:19;;;;;;;;;;;9.60;99.90;;;9.17;100.00;98179.56;4994662;28;1851;-70
2024/03/20 07:39:45;;;;;;;;;;;9.70;99.90;;;9.49;100.00;98174.34;4998526;28;2054;-69
2024/03/20 07:42:11;;;;;;;;;;;9.80;99.90;;;9.45;100.00;98177.94;4981913;28;1993;-70
2024/03/20 07:44:36;;;;;;;;;;;9.90;99.90;;;9.32;100.00;98180.84;4995415;28;1825;-70
2024/03/20 07:47:06;;;;;;;;;;;10.00;99.90;;;9.27;100.00;98176.72;4995560;28;1634;-70
2024/03/20 07:49:31;;;;;;;;;;;10.00;99.90;;;9.29;100.00;98190.47;4996944;28;1606;-70
2024/03/20 07:51:57;;;;;;;;;;;10.00;99.90;;;9.46;100.00;98183.06;4980649;28;1467;-70
2024/03/20 07:54:27;;;;;;;;;;;10.00;99.90;;;9.60;100.00;98180.06;4995111;28;3090;-69
2024/03/20 07:56:53;;;;;;;;;;;10.10;99.90;;;10.03;100.00;98186.56;4980712;28;1462;-69
2024/03/20 07:59:20;;;;;;;;;;;10.10;99.90;;;10.44;100.00;98174.91;4980239;28;1592;-69
2024/03/20 08:01:46;;;;;;;;;;;10.30;99.90;;;11.12;100.00;98166.59;4993122;28;1993;-70
2024/03/20 08:04:12;;;;;;;;;;;10.60;99.90;;;11.36;100.00;98147.53;4979284;28;1599;-70
2024/03/20 08:06:39;;;;;;;;;;;11.10;99.90;;;12.23;100.00;98132.94;4977903;28;1908;-70
2024/03/20 08:09:05;;;;;;;;;;;11.80;99.90;;;12.91;100.00;98106.69;4996416;28;2154;-70
2024/03/20 08:11:35;;;;;;;;;;;12.70;99.90;;;13.18;100.00;98086.34;4996496;28;1853;-69
2024/03/20 08:14:13;;;;;;;;;;;13.50;99.90;;;13.85;100.00;98076.38;4996163;28;1471;-70
2024/03/20 08:16:40;;;;;;;;;;;14.30;99.90;;;14.25;100.00;98053.53;4996393;28;1468;-70
2024/03/20 08:19:09;;;;;;;;;;;14.90;99.90;;;14.21;100.00;98048.47;4963758;28;1413;-70
2024/03/20 08:21:35;;;;;;;;;;;15.30;99.90;;;14.47;100.00;98041.09;4984607;28;1999;-70
2024/03/20 08:24:04;;;;;;;;;;;15.70;99.90;;;14.51;100.00;98037.41;4962195;28;1646;-70
2024/03/20 08:26:30;;;;;;;;;;;16.20;99.90;;;14.51;100.00;98039.19;4982125;28;1411;-69
2024/03/20 08:28:56;;;;;;;;;;;16.70;99.90;;;14.45;100.00;98042.94;4993633;28;1652;-70
2024/03/20 08:31:23;;;;;;;;;;;16.50;99.90;;;14.50;100.00;98038.31;4963986;28;1551;-69
2024/03/20 08:33:49;;;;;;;;;;;16.40;99.90;;;14.68;100.00;98036.56;4979228;28;1758;-69
2024/03/20 08:36:15;;;;;;;;;;;16.40;99.90;;;14.57;100.00;98044.09;4993084;28;3408;-70
2024/03/20 08:38:42;;;;;;;;;;;16.30;99.90;;;14.56;100.00;98031.97;4979296;28;1581;-69
2024/03/20 08:41:08;;;;;;;;;;;16.40;99.90;;;15.17;100.00;98033.97;4993542;28;1903;-70
2024/03/20 08:43:34;;;;;;;;;;;16.40;99.90;;;15.12;100.00;98025.53;4980535;28;1472;-70
2024/03/20 08:46:00;;;;;;;;;;;16.70;99.90;;;15.93;100.00;98024.59;4976278;28;1777;-70
2024/03/20 08:48:28;;;;;;;;;;;16.90;99.90;;;16.00;100.00;98008.44;4959744;28;2069;-70
2024/03/20 08:50:54;;;;;;;;;;;17.30;99.90;;;16.75;100.00;98007.56;4995313;28;2496;-70
2024/03/20 08:53:20;;;;;;;;;;;17.50;99.90;;;15.67;100.00;98008.56;4980799;28;2286;-70
2024/03/20 08:55:47;;;;;;;;;;;17.40;99.90;;;15.92;100.00;98017.66;4961735;28;1432;-70
2024/03/20 08:58:14;;;;;;;;;;;17.60;99.90;;;16.36;100.00;98007.22;4976574;28;1325;-70
2024/03/20 09:00:40;;;;;;;;;;;17.40;99.90;;;15.98;100.00;98009.47;4977654;28;1989;-70
2024/03/20 09:03:06;;;;;;;;;;;17.40;99.90;;;15.72;100.00;98017.03;4977372;28;1512;-70
2024/03/20 09:05:32;;;;;;;;;;;17.10;99.90;;;15.80;100.00;98014.81;4996685;28;2147;-70
2024/03/20 09:07:58;;;;;;;;;;;17.10;99.90;;;15.46;100.00;98008.84;4962077;28;1428;-70
2024/03/20 09:10:23;;;;;;;;;;;17.00;99.90;;;15.23;100.00;98023.16;4993133;28;1595;-70
2024/03/20 09:12:49;;;;;;;;;;;16.80;99.90;;;14.90;100.00;98018.00;4995317;28;1443;-70
2024/03/20 09:15:15;;;;;;;;;;;16.70;99.90;;;15.37;100.00;98016.34;4979690;28;1849;-70
2024/03/20 09:17:41;;;;;;;;;;;16.90;99.90;;;15.58;100.00;98020.41;4978741;28;1585;-69
2024/03/20 09:20:19;;;;;;;;;;;17.00;99.90;;;16.24;100.00;98010.59;4994304;28;3038;-70
2024/03/20 09:22:46;;;;;;;;;;;17.30;99.90;;;16.23;100.00;98011.50;4979685;28;2288;-69
2024/03/20 09:25:16;;;;;;;;;;;17.40;99.90;;;15.90;100.00;98017.78;4994557;28;1751;-69
2024/03/20 09:27:41;;;;;;;;;;;17.40;99.90;;;16.51;100.00;98003.72;4993644;28;1623;-70
2024/03/20 09:30:08;;;;;;;;;;;17.50;99.90;;;16.70;100.00;98000.81;4993541;28;1476;-70
2024/03/20 09:32:35;;;;;;;;;;;17.80;99.90;;;16.62;100.00;98005.66;4978447;28;2347;-70
2024/03/20 09:35:01;;;;;;;;;;;17.70;99.90;;;16.72;100.00;97998.94;4984037;28;2107;-70
2024/03/20 09:37:29;;;;;;;;;;;17.80;99.90;;;16.84;100.00;97999.16;4985877;28;1602;-70
2024/03/20 09:39:56;;;;;;;;;;;17.80;99.90;;;16.86;100.00;97995.50;4983885;28;1809;-70
2024/03/20 09:42:22;;;;;;;;;;;17.90;99.90;;;17.41;100.00;97988.59;4980547;28;1902;-70
2024/03/20 09:44:48;;;;;;;;;;;18.20;99.90;;;17.46;100.00;97976.00;4984451;28;1626;-70
2024/03/20 09:47:15;;;;;;;;;;;18.50;99.90;;;17.56;100.00;97973.63;4981460;28;1495;-70
2024/03/20 09:49:41;;;;;;;;;;;18.80;99.90;;;17.29;100.00;97968.38;4985100;28;2126;-70
2024/03/20 09:52:08;;;;;;;;;;;18.70;99.90;;;17.45;100.00;97969.09;4995779;28;1678;-70
2024/03/20 09:54:34;;;;;;;;;;;18.70;99.90;;;17.60;100.00;97958.53;4999565;28;1624;-70
2024/03/20 09:57:01;;;;;;;;;;;18.70;99.90;;;17.65;100.00;97970.44;4981535;28;1646;-70
2024/03/20 09:59:29;;;;;;;;;;;18.80;99.90;;;17.67;100.00;97949.31;4996250;28;1380;-70
2024/03/20 10:01:55;;;;;;;;;;;19.00;99.90;;;17.79;100.00;97951.16;4983468;28;3118;-70
2024/03/20 10:04:28;;;;;;;;;;;19.20;99.90;;;17.00;100.00;97944.00;4968133;28;1904;-70
2024/03/20 10:06:55;;;;;;;;;;;18.90;99.90;;;17.29;100.00;97950.84;4996432;28;1600;-70
2024/03/20 10:09:26;;;;;;;;;;;18.90;99.90;;;17.21;100.00;97949.66;4999441;28;1609;-69
2024/03/20 10:11:53;;;;;;;;;;;19.00;99.90;;;17.03;100.00;97949.88;4998050;28;1972;-70
2024/03/20 10:14:21;;;;;;;;;;;19.00;99.90;;;17.07;100.00;97947.91;4982140;28;1644;-69
2024/03/20 10:16:47;;;;;;;;;;;19.00;99.90;;;17.31;100.00;97951.59;4980132;28;2143;-70
2024/03/20 10:19:13;;;;;;;;;;;18.90;99.90;;;17.66;100.00;97953.72;4981233;28;1732;-70
2024/03/20 10:21:39;;;;;;;;;;;19.00;99.90;;;17.73;100.00;97941.88;4964202;28;1716;-70
2024/03/20 10:24:05;;;;;;;;;;;19.10;99.90;;;17.37;100.00;97942.47;4994656;28;1624;-70
2024/03/20 10:26:32;;;;;;;;;;;19.00;99.90;;;17.90;100.00;97938.19;4980486;28;1583;-70
2024/03/20 10:29:01;;;;;;;;;;;18.80;99.90;;;17.72;100.00;97936.72;4997990;28;2106;-70
2024/03/20 10:31:27;;;;;;;;;;;18.90;99.90;;;17.97;100.00;97922.81;4981160;28;2283;-70
2024/03/20 10:33:54;;;;;;;;;;;19.00;99.90;;;17.85;100.00;97927.13;4996705;28;1462;-70
2024/03/20 10:36:21;;;;;;;;;;;19.00;99.90;;;16.92;100.00;97926.97;4981411;28;1661;-70
2024/03/20 10:38:47;;;;;;;;;;;18.70;99.90;;;17.34;100.00;97943.53;5001185;28;1431;-70
2024/03/20 10:41:14;;;;;;;;;;;18.50;99.90;;;17.43;100.00;97930.75;4995009;28;1741;-70
2024/03/20 10:43:41;;;;;;;;;;;18.50;99.90;;;17.25;100.00;97936.25;4997645;28;2405;-70
2024/03/20 10:46:11;;;;;;;;;;;;;;;16.69;100.00;97943.22;4985423;28;3381;-70
2024/03/20 10:48:37;;;;;;;;;;;18.00;99.90;;;17.03;100.00;97941.16;4967730;28;2569;-70
2024/03/20 10:51:03;;;;;;;;;;;17.90;99.90;;;17.56;100.00;97934.25;4966729;28;2148;-70
2024/03/20 10:53:30;;;;;;;;;;;18.00;99.90;;;17.47;100.00;97934.84;4980514;28;1625;-70
2024/03/20 10:55:56;;;;;;;;;;;18.10;99.90;;;17.53;100.00;97930.03;4980213;28;1609;-70
2024/03/20 10:58:25;;;;;;;;;;;18.00;99.90;;;17.56;100.00;97926.38;4982712;28;1562;-70
2024/03/20 11:00:53;;;;;;;;;;;18.00;99.90;;;17.42;100.00;97916.78;4983716;28;1622;-70
2024/03/20 11:03:42;;;;;;;;;;;18.00;99.90;;;17.77;100.00;97908.38;4968146;28;1640;-70
2024/03/20 11:06:30;;;;;;;;;;;18.10;99.90;;;17.56;100.00;97906.25;5000886;28;2019;-70
2024/03/20 11:09:06;;;;;;;;;;;18.10;99.90;;;17.62;100.00;97904.16;4998974;28;1923;-70
2024/03/20 11:11:32;;;;;;;;;;;18.20;99.90;;;17.58;100.00;97914.00;4985295;28;1923;-70
2024/03/20 11:14:05;;;;;;;;;;;18.30;99.90;;;17.63;100.00;97900.56;4984201;28;1650;-70
2024/03/20 11:16:31;;;;;;;;;;;18.30;99.90;;;18.17;100.00;97896.03;4996901;28;1433;-69
2024/03/20 11:19:05;;;;;;;;;;;18.50;99.90;;;18.02;100.00;97886.59;4981328;28;1800;-70
2024/03/20 11:21:31;;;;;;;;;;;18.40;99.90;;;17.72;100.00;97890.31;4994781;28;2348;-70
2024/03/20 11:23:57;;;;;;;;;;;18.00;99.90;;;17.52;100.00;97889.00;4978780;28;1669;-70
2024/03/20 11:26:25;;;;;;;;;;;17.60;99.90;;;17.47;100.00;97896.34;4963126;28;1349;-70